Terminal Aerodrome Forecast
Issued by NWS Chicago, IL

Home | Current Version | Previous Version | Graphics & Text | Print | Product List | Glossary On
Versions: 1 2 3 4 5 6 7 8 9 10 11 12 13 14 15 16 17 18 19 20 21 22 23 24 25 26 27
979
FTUS43 KLOT 232320
TAFRFD
TAF
KRFD 232320Z 2400/2424 30014G21KT P6SM BKN070
     FM240100 29010KT P6SM SCT070
     FM241500 29015G23KT P6SM BKN050=

USA.gov is the U.S. government's official web portal to all federal, state and local government web resources and services.